sensor_id;sensor_type;location;lat;lon;timestamp;temperature;humidity
14733;DHT22;7457;50.960;6.830;2023-02-28T00:00:26;0.30;68.90
14733;DHT22;7457;50.960;6.830;2023-02-28T00:02:52;0.30;69.00
14733;DHT22;7457;50.960;6.830;2023-02-28T00:05:19;0.30;69.10
14733;DHT22;7457;50.960;6.830;2023-02-28T00:07:46;0.30;69.20
14733;DHT22;7457;50.960;6.830;2023-02-28T00:10:14;0.30;69.00
14733;DHT22;7457;50.960;6.830;2023-02-28T00:12:41;0.30;69.10
14733;DHT22;7457;50.960;6.830;2023-02-28T00:15:09;0.30;69.20
14733;DHT22;7457;50.960;6.830;2023-02-28T00:17:35;0.30;69.30
14733;DHT22;7457;50.960;6.830;2023-02-28T00:20:02;0.30;69.30
14733;DHT22;7457;50.960;6.830;2023-02-28T00:22:39;0.30;69.10
14733;DHT22;7457;50.960;6.830;2023-02-28T00:25:05;0.20;69.10
14733;DHT22;7457;50.960;6.830;2023-02-28T00:27:32;0.20;69.10
14733;DHT22;7457;50.960;6.830;2023-02-28T00:29:58;0.20;69.30
14733;DHT22;7457;50.960;6.830;2023-02-28T00:32:24;0.20;69.60
14733;DHT22;7457;50.960;6.830;2023-02-28T00:34:49;0.20;69.80
14733;DHT22;7457;50.960;6.830;2023-02-28T00:37:15;0.20;69.80
14733;DHT22;7457;50.960;6.830;2023-02-28T00:39:41;0.20;69.70
14733;DHT22;7457;50.960;6.830;2023-02-28T00:42:07;0.20;69.80
14733;DHT22;7457;50.960;6.830;2023-02-28T00:44:33;0.20;69.90
14733;DHT22;7457;50.960;6.830;2023-02-28T00:47:00;0.10;70.00
14733;DHT22;7457;50.960;6.830;2023-02-28T00:49:26;0.10;69.80
14733;DHT22;7457;50.960;6.830;2023-02-28T00:51:53;0.10;69.90
14733;DHT22;7457;50.960;6.830;2023-02-28T00:54:20;0.10;69.80
14733;DHT22;7457;50.960;6.830;2023-02-28T00:56:45;0.00;70.20
14733;DHT22;7457;50.960;6.830;2023-02-28T00:59:15;0.00;70.40
14733;DHT22;7457;50.960;6.830;2023-02-28T01:01:42;0.00;70.50
14733;DHT22;7457;50.960;6.830;2023-02-28T01:04:07;0.00;70.60
14733;DHT22;7457;50.960;6.830;2023-02-28T01:06:33;0.00;70.90
14733;DHT22;7457;50.960;6.830;2023-02-28T01:08:59;0.00;70.70
14733;DHT22;7457;50.960;6.830;2023-02-28T01:11:25;0.00;70.80
14733;DHT22;7457;50.960;6.830;2023-02-28T01:13:51;0.00;70.90
14733;DHT22;7457;50.960;6.830;2023-02-28T01:16:16;0.00;70.90
14733;DHT22;7457;50.960;6.830;2023-02-28T01:18:42;0.00;70.90
14733;DHT22;7457;50.960;6.830;2023-02-28T01:21:11;0.10;70.70
14733;DHT22;7457;50.960;6.830;2023-02-28T01:23:38;0.10;70.60
14733;DHT22;7457;50.960;6.830;2023-02-28T01:26:20;0.00;70.60
14733;DHT22;7457;50.960;6.830;2023-02-28T01:28:47;0.00;70.80
14733;DHT22;7457;50.960;6.830;2023-02-28T01:31:13;0.00;70.70
14733;DHT22;7457;50.960;6.830;2023-02-28T01:33:39;0.10;70.80
14733;DHT22;7457;50.960;6.830;2023-02-28T01:36:09;0.10;70.60
14733;DHT22;7457;50.960;6.830;2023-02-28T01:38:35;0.00;70.80
14733;DHT22;7457;50.960;6.830;2023-02-28T01:41:01;0.00;71.00
14733;DHT22;7457;50.960;6.830;2023-02-28T01:43:28;0.00;70.80
14733;DHT22;7457;50.960;6.830;2023-02-28T01:45:54;0.00;71.00
14733;DHT22;7457;50.960;6.830;2023-02-28T01:48:25;0.00;70.90
14733;DHT22;7457;50.960;6.830;2023-02-28T01:50:52;0.00;70.90
14733;DHT22;7457;50.960;6.830;2023-02-28T01:53:23;0.00;71.00
14733;DHT22;7457;50.960;6.830;2023-02-28T01:55:51;0.00;71.00
14733;DHT22;7457;50.960;6.830;2023-02-28T01:58:18;0.00;71.00
14733;DHT22;7457;50.960;6.830;2023-02-28T02:00:43;0.00;71.10
14733;DHT22;7457;50.960;6.830;2023-02-28T02:03:13;0.00;71.20
14733;DHT22;7457;50.960;6.830;2023-02-28T02:05:40;0.00;71.00
14733;DHT22;7457;50.960;6.830;2023-02-28T02:08:13;0.00;71.10
14733;DHT22;7457;50.960;6.830;2023-02-28T02:10:48;0.00;71.10
14733;DHT22;7457;50.960;6.830;2023-02-28T02:13:37;0.00;71.20
14733;DHT22;7457;50.960;6.830;2023-02-28T02:18:46;0.00;71.10
14733;DHT22;7457;50.960;6.830;2023-02-28T02:24:23;0.00;71.00
14733;DHT22;7457;50.960;6.830;2023-02-28T02:35:42;0.00;70.80
14733;DHT22;7457;50.960;6.830;2023-02-28T02:38:10;0.00;70.80
14733;DHT22;7457;50.960;6.830;2023-02-28T02:41:28;0.00;70.80
14733;DHT22;7457;50.960;6.830;2023-02-28T02:46:19;0.00;70.60
14733;DHT22;7457;50.960;6.830;2023-02-28T02:48:46;0.00;70.60
14733;DHT22;7457;50.960;6.830;2023-02-28T02:51:17;0.00;70.50
14733;DHT22;7457;50.960;6.830;2023-02-28T02:56:17;-0.10;70.40
14733;DHT22;7457;50.960;6.830;2023-02-28T02:58:44;-0.10;70.40
14733;DHT22;7457;50.960;6.830;2023-02-28T03:01:16;-0.10;70.40
14733;DHT22;7457;50.960;6.830;2023-02-28T03:03:43;-0.20;70.40
14733;DHT22;7457;50.960;6.830;2023-02-28T03:06:09;-0.20;70.30
14733;DHT22;7457;50.960;6.830;2023-02-28T03:08:38;-0.20;70.30
14733;DHT22;7457;50.960;6.830;2023-02-28T03:11:06;-0.20;70.20
14733;DHT22;7457;50.960;6.830;2023-02-28T03:25:06;-0.50;70.20
14733;DHT22;7457;50.960;6.830;2023-02-28T03:30:23;-0.50;70.30
14733;DHT22;7457;50.960;6.830;2023-02-28T03:32:58;-0.60;70.30
14733;DHT22;7457;50.960;6.830;2023-02-28T03:35:32;-0.60;70.30
14733;DHT22;7457;50.960;6.830;2023-02-28T03:38:10;-0.60;70.30
14733;DHT22;7457;50.960;6.830;2023-02-28T03:40:47;-0.60;70.20
14733;DHT22;7457;50.960;6.830;2023-02-28T03:43:19;-0.60;70.30
14733;DHT22;7457;50.960;6.830;2023-02-28T03:45:48;-0.60;70.30
14733;DHT22;7457;50.960;6.830;2023-02-28T03:48:51;-0.60;70.20
14733;DHT22;7457;50.960;6.830;2023-02-28T03:51:12;-0.70;70.20
14733;DHT22;7457;50.960;6.830;2023-02-28T03:53:45;-0.70;70.40
14733;DHT22;7457;50.960;6.830;2023-02-28T03:58:53;-0.70;70.60
14733;DHT22;7457;50.960;6.830;2023-02-28T04:01:45;-0.80;70.70
14733;DHT22;7457;50.960;6.830;2023-02-28T04:04:13;-0.80;71.00
14733;DHT22;7457;50.960;6.830;2023-02-28T04:06:40;-0.80;71.20
14733;DHT22;7457;50.960;6.830;2023-02-28T04:09:07;-0.80;71.10
14733;DHT22;7457;50.960;6.830;2023-02-28T04:14:08;-0.80;71.50
14733;DHT22;7457;50.960;6.830;2023-02-28T04:16:37;-0.90;71.50
14733;DHT22;7457;50.960;6.830;2023-02-28T04:19:04;-0.90;71.80
14733;DHT22;7457;50.960;6.830;2023-02-28T04:21:33;-0.90;72.30
14733;DHT22;7457;50.960;6.830;2023-02-28T04:23:59;-0.90;72.30
14733;DHT22;7457;50.960;6.830;2023-02-28T04:26:36;-1.00;72.50
14733;DHT22;7457;50.960;6.830;2023-02-28T04:29:04;-1.00;72.70
14733;DHT22;7457;50.960;6.830;2023-02-28T04:31:30;-1.00;72.90
14733;DHT22;7457;50.960;6.830;2023-02-28T04:33:56;-1.00;73.00
14733;DHT22;7457;50.960;6.830;2023-02-28T04:36:22;-1.10;72.60
14733;DHT22;7457;50.960;6.830;2023-02-28T04:38:49;-1.10;73.30
14733;DHT22;7457;50.960;6.830;2023-02-28T04:41:15;-1.20;73.70
14733;DHT22;7457;50.960;6.830;2023-02-28T04:43:40;-1.20;74.00
14733;DHT22;7457;50.960;6.830;2023-02-28T04:46:06;-1.20;74.00
14733;DHT22;7457;50.960;6.830;2023-02-28T04:48:34;-1.20;73.60
14733;DHT22;7457;50.960;6.830;2023-02-28T04:51:06;-1.20;73.80
14733;DHT22;7457;50.960;6.830;2023-02-28T04:53:32;-1.20;74.20
14733;DHT22;7457;50.960;6.830;2023-02-28T04:55:58;-1.20;74.20
14733;DHT22;7457;50.960;6.830;2023-02-28T04:58:25;-1.20;74.50
14733;DHT22;7457;50.960;6.830;2023-02-28T05:00:51;-1.20;74.30
14733;DHT22;7457;50.960;6.830;2023-02-28T05:03:17;-1.20;74.40
14733;DHT22;7457;50.960;6.830;2023-02-28T05:05:43;-1.20;74.30
14733;DHT22;7457;50.960;6.830;2023-02-28T05:08:09;-1.20;74.20
14733;DHT22;7457;50.960;6.830;2023-02-28T05:10:35;-1.20;74.10
14733;DHT22;7457;50.960;6.830;2023-02-28T05:13:01;-1.10;74.00
14733;DHT22;7457;50.960;6.830;2023-02-28T05:15:26;-1.10;73.90
14733;DHT22;7457;50.960;6.830;2023-02-28T05:17:52;-1.10;73.80
14733;DHT22;7457;50.960;6.830;2023-02-28T05:20:17;-1.10;73.70
14733;DHT22;7457;50.960;6.830;2023-02-28T05:22:43;-1.10;73.70
14733;DHT22;7457;50.960;6.830;2023-02-28T05:25:16;-1.10;73.50
14733;DHT22;7457;50.960;6.830;2023-02-28T05:27:42;-1.10;73.40
14733;DHT22;7457;50.960;6.830;2023-02-28T05:30:08;-1.00;73.40
14733;DHT22;7457;50.960;6.830;2023-02-28T05:32:37;-1.10;73.40
14733;DHT22;7457;50.960;6.830;2023-02-28T05:35:03;-1.10;73.30
14733;DHT22;7457;50.960;6.830;2023-02-28T05:37:28;-1.10;73.30
14733;DHT22;7457;50.960;6.830;2023-02-28T05:39:54;-1.10;73.30
14733;DHT22;7457;50.960;6.830;2023-02-28T05:42:20;-1.20;73.30
14733;DHT22;7457;50.960;6.830;2023-02-28T05:44:48;-1.20;73.40
14733;DHT22;7457;50.960;6.830;2023-02-28T05:47:13;-1.20;73.40
14733;DHT22;7457;50.960;6.830;2023-02-28T05:49:41;-1.20;73.40
14733;DHT22;7457;50.960;6.830;2023-02-28T05:52:07;-1.20;73.50
14733;DHT22;7457;50.960;6.830;2023-02-28T05:54:32;-1.20;73.60
14733;DHT22;7457;50.960;6.830;2023-02-28T05:56:58;-1.20;73.70
14733;DHT22;7457;50.960;6.830;2023-02-28T05:59:24;-1.20;73.80
14733;DHT22;7457;50.960;6.830;2023-02-28T06:01:49;-1.20;73.80
14733;DHT22;7457;50.960;6.830;2023-02-28T06:04:17;-1.20;73.80
14733;DHT22;7457;50.960;6.830;2023-02-28T06:06:48;-1.30;73.90
14733;DHT22;7457;50.960;6.830;2023-02-28T06:09:14;-1.20;73.90
14733;DHT22;7457;50.960;6.830;2023-02-28T06:11:41;-1.20;73.80
14733;DHT22;7457;50.960;6.830;2023-02-28T06:14:07;-1.20;73.80
14733;DHT22;7457;50.960;6.830;2023-02-28T06:16:34;-1.30;74.00
14733;DHT22;7457;50.960;6.830;2023-02-28T06:19:01;-1.30;74.00
14733;DHT22;7457;50.960;6.830;2023-02-28T06:21:28;-1.30;74.10
14733;DHT22;7457;50.960;6.830;2023-02-28T06:23:55;-1.30;74.20
14733;DHT22;7457;50.960;6.830;2023-02-28T06:26:20;-1.30;74.20
14733;DHT22;7457;50.960;6.830;2023-02-28T06:28:46;-1.30;74.30
14733;DHT22;7457;50.960;6.830;2023-02-28T06:31:14;-1.30;74.30
14733;DHT22;7457;50.960;6.830;2023-02-28T06:33:41;-1.20;74.40
14733;DHT22;7457;50.960;6.830;2023-02-28T06:36:07;-1.20;74.20
14733;DHT22;7457;50.960;6.830;2023-02-28T06:38:33;-1.10;74.30
14733;DHT22;7457;50.960;6.830;2023-02-28T06:41:00;-1.10;74.20
14733;DHT22;7457;50.960;6.830;2023-02-28T06:43:29;-1.10;74.20
14733;DHT22;7457;50.960;6.830;2023-02-28T06:45:57;-1.00;74.00
14733;DHT22;7457;50.960;6.830;2023-02-28T06:48:23;-0.90;74.00
14733;DHT22;7457;50.960;6.830;2023-02-28T06:50:49;-0.80;74.00
14733;DHT22;7457;50.960;6.830;2023-02-28T06:53:15;-0.80;74.00
14733;DHT22;7457;50.960;6.830;2023-02-28T06:55:41;-0.70;74.20
14733;DHT22;7457;50.960;6.830;2023-02-28T06:58:07;-0.50;74.40
14733;DHT22;7457;50.960;6.830;2023-02-28T07:00:45;-0.40;74.40
14733;DHT22;7457;50.960;6.830;2023-02-28T07:03:12;-0.30;74.40
14733;DHT22;7457;50.960;6.830;2023-02-28T07:05:39;-0.10;74.10
14733;DHT22;7457;50.960;6.830;2023-02-28T07:08:06;0.00;74.20
14733;DHT22;7457;50.960;6.830;2023-02-28T07:10:37;0.20;74.20
14733;DHT22;7457;50.960;6.830;2023-02-28T07:13:04;0.60;73.70
14733;DHT22;7457;50.960;6.830;2023-02-28T07:15:29;1.20;72.90
14733;DHT22;7457;50.960;6.830;2023-02-28T07:17:55;1.70;72.80
14733;DHT22;7457;50.960;6.830;2023-02-28T07:20:22;2.30;72.00
14733;DHT22;7457;50.960;6.830;2023-02-28T07:22:48;2.80;71.70
14733;DHT22;7457;50.960;6.830;2023-02-28T07:25:24;3.40;69.20
14733;DHT22;7457;50.960;6.830;2023-02-28T07:27:50;3.80;68.20
14733;DHT22;7457;50.960;6.830;2023-02-28T07:30:16;4.20;67.80
14733;DHT22;7457;50.960;6.830;2023-02-28T07:32:42;4.40;64.40
14733;DHT22;7457;50.960;6.830;2023-02-28T07:35:07;4.50;64.40
14733;DHT22;7457;50.960;6.830;2023-02-28T07:37:33;4.50;63.50
14733;DHT22;7457;50.960;6.830;2023-02-28T07:40:06;4.50;63.00
14733;DHT22;7457;50.960;6.830;2023-02-28T07:42:37;4.70;62.60
14733;DHT22;7457;50.960;6.830;2023-02-28T07:45:04;5.00;62.50
14733;DHT22;7457;50.960;6.830;2023-02-28T07:47:30;5.10;61.90
14733;DHT22;7457;50.960;6.830;2023-02-28T07:49:56;5.30;59.50
14733;DHT22;7457;50.960;6.830;2023-02-28T07:52:22;5.30;57.90
14733;DHT22;7457;50.960;6.830;2023-02-28T07:54:51;5.20;58.30
14733;DHT22;7457;50.960;6.830;2023-02-28T07:57:17;5.30;59.00
14733;DHT22;7457;50.960;6.830;2023-02-28T07:59:43;5.50;59.90
14733;DHT22;7457;50.960;6.830;2023-02-28T08:02:17;5.70;55.80
14733;DHT22;7457;50.960;6.830;2023-02-28T08:04:43;5.80;55.90
14733;DHT22;7457;50.960;6.830;2023-02-28T08:07:09;5.90;55.90
14733;DHT22;7457;50.960;6.830;2023-02-28T08:09:39;5.90;55.90
14733;DHT22;7457;50.960;6.830;2023-02-28T08:12:04;6.00;55.20
14733;DHT22;7457;50.960;6.830;2023-02-28T08:14:30;6.10;54.90
14733;DHT22;7457;50.960;6.830;2023-02-28T08:16:56;6.20;54.70
14733;DHT22;7457;50.960;6.830;2023-02-28T08:19:21;6.20;54.80
14733;DHT22;7457;50.960;6.830;2023-02-28T08:21:47;6.20;55.20
14733;DHT22;7457;50.960;6.830;2023-02-28T08:24:13;6.30;54.90
14733;DHT22;7457;50.960;6.830;2023-02-28T08:26:38;6.40;54.40
14733;DHT22;7457;50.960;6.830;2023-02-28T08:29:04;6.50;54.30
14733;DHT22;7457;50.960;6.830;2023-02-28T08:31:29;6.50;53.20
14733;DHT22;7457;50.960;6.830;2023-02-28T08:33:55;6.30;52.10
14733;DHT22;7457;50.960;6.830;2023-02-28T08:36:24;6.00;51.00
14733;DHT22;7457;50.960;6.830;2023-02-28T08:38:50;5.70;51.50
14733;DHT22;7457;50.960;6.830;2023-02-28T08:41:15;5.40;51.90
14733;DHT22;7457;50.960;6.830;2023-02-28T08:43:41;5.10;51.10
14733;DHT22;7457;50.960;6.830;2023-02-28T08:46:07;4.90;51.40
14733;DHT22;7457;50.960;6.830;2023-02-28T08:48:35;4.70;51.80
14733;DHT22;7457;50.960;6.830;2023-02-28T08:51:08;4.60;51.40
14733;DHT22;7457;50.960;6.830;2023-02-28T08:53:38;4.50;51.40
14733;DHT22;7457;50.960;6.830;2023-02-28T08:56:10;4.40;51.70
14733;DHT22;7457;50.960;6.830;2023-02-28T08:58:36;4.40;52.10
14733;DHT22;7457;50.960;6.830;2023-02-28T09:01:23;4.40;51.80
14733;DHT22;7457;50.960;6.830;2023-02-28T09:03:50;4.40;51.50
14733;DHT22;7457;50.960;6.830;2023-02-28T09:06:18;4.40;50.90
14733;DHT22;7457;50.960;6.830;2023-02-28T09:08:44;4.30;51.30
14733;DHT22;7457;50.960;6.830;2023-02-28T09:11:10;4.40;51.10
14733;DHT22;7457;50.960;6.830;2023-02-28T09:13:35;4.40;51.20
14733;DHT22;7457;50.960;6.830;2023-02-28T09:16:03;4.50;51.30
14733;DHT22;7457;50.960;6.830;2023-02-28T09:18:29;4.50;49.20
14733;DHT22;7457;50.960;6.830;2023-02-28T09:20:55;4.40;49.10
14733;DHT22;7457;50.960;6.830;2023-02-28T09:23:21;4.30;49.00
14733;DHT22;7457;50.960;6.830;2023-02-28T09:25:51;4.20;49.60
14733;DHT22;7457;50.960;6.830;2023-02-28T09:28:17;4.20;50.00
14733;DHT22;7457;50.960;6.830;2023-02-28T09:30:48;4.30;49.50
14733;DHT22;7457;50.960;6.830;2023-02-28T09:33:14;4.30;49.20
14733;DHT22;7457;50.960;6.830;2023-02-28T09:35:40;4.40;49.20
14733;DHT22;7457;50.960;6.830;2023-02-28T09:38:06;4.50;50.10
14733;DHT22;7457;50.960;6.830;2023-02-28T09:40:36;4.70;50.40
14733;DHT22;7457;50.960;6.830;2023-02-28T09:43:02;5.00;49.70
14733;DHT22;7457;50.960;6.830;2023-02-28T09:45:35;5.10;49.80
14733;DHT22;7457;50.960;6.830;2023-02-28T09:48:04;5.30;49.50
14733;DHT22;7457;50.960;6.830;2023-02-28T09:50:51;5.40;48.80
14733;DHT22;7457;50.960;6.830;2023-02-28T09:53:29;5.50;48.80
14733;DHT22;7457;50.960;6.830;2023-02-28T09:58:41;5.60;48.70
14733;DHT22;7457;50.960;6.830;2023-02-28T10:01:21;5.80;48.70
14733;DHT22;7457;50.960;6.830;2023-02-28T10:04:03;6.20;48.20
14733;DHT22;7457;50.960;6.830;2023-02-28T10:06:43;6.40;47.40
14733;DHT22;7457;50.960;6.830;2023-02-28T10:09:30;6.80;47.50
14733;DHT22;7457;50.960;6.830;2023-02-28T10:12:02;7.20;47.70
14733;DHT22;7457;50.960;6.830;2023-02-28T10:14:31;7.50;47.30
14733;DHT22;7457;50.960;6.830;2023-02-28T10:17:04;7.90;48.30
14733;DHT22;7457;50.960;6.830;2023-02-28T10:24:52;8.90;46.20
14733;DHT22;7457;50.960;6.830;2023-02-28T10:27:23;9.20;45.10
14733;DHT22;7457;50.960;6.830;2023-02-28T10:29:51;9.10;44.00
14733;DHT22;7457;50.960;6.830;2023-02-28T10:32:19;9.10;44.60
14733;DHT22;7457;50.960;6.830;2023-02-28T10:34:59;9.20;43.90
14733;DHT22;7457;50.960;6.830;2023-02-28T10:37:26;9.40;44.30
14733;DHT22;7457;50.960;6.830;2023-02-28T10:39:52;9.60;44.10
14733;DHT22;7457;50.960;6.830;2023-02-28T10:42:29;9.70;43.10
14733;DHT22;7457;50.960;6.830;2023-02-28T10:45:17;9.70;42.90
14733;DHT22;7457;50.960;6.830;2023-02-28T10:55:36;9.60;43.00
14733;DHT22;7457;50.960;6.830;2023-02-28T10:58:02;9.80;42.70
14733;DHT22;7457;50.960;6.830;2023-02-28T11:00:34;9.70;40.80
14733;DHT22;7457;50.960;6.830;2023-02-28T11:03:00;9.60;42.20
14733;DHT22;7457;50.960;6.830;2023-02-28T11:07:56;10.10;41.60
14733;DHT22;7457;50.960;6.830;2023-02-28T11:10:25;10.20;41.50
14733;DHT22;7457;50.960;6.830;2023-02-28T11:12:55;10.20;40.60
14733;DHT22;7457;50.960;6.830;2023-02-28T11:15:27;10.00;41.40
14733;DHT22;7457;50.960;6.830;2023-02-28T11:17:59;10.00;40.80
14733;DHT22;7457;50.960;6.830;2023-02-28T11:20:28;10.00;41.10
14733;DHT22;7457;50.960;6.830;2023-02-28T11:22:56;10.00;41.60
14733;DHT22;7457;50.960;6.830;2023-02-28T11:25:23;10.10;41.80
14733;DHT22;7457;50.960;6.830;2023-02-28T11:27:52;10.40;42.50
14733;DHT22;7457;50.960;6.830;2023-02-28T11:32:52;11.00;41.20
14733;DHT22;7457;50.960;6.830;2023-02-28T11:35:26;11.20;41.60
14733;DHT22;7457;50.960;6.830;2023-02-28T11:37:52;11.30;40.20
14733;DHT22;7457;50.960;6.830;2023-02-28T11:40:36;11.10;40.40
14733;DHT22;7457;50.960;6.830;2023-02-28T11:48:46;10.90;39.70
14733;DHT22;7457;50.960;6.830;2023-02-28T11:51:25;10.80;40.80
14733;DHT22;7457;50.960;6.830;2023-02-28T11:56:37;10.90;41.40
14733;DHT22;7457;50.960;6.830;2023-02-28T12:05:14;10.60;40.50
14733;DHT22;7457;50.960;6.830;2023-02-28T12:07:49;10.60;39.50
14733;DHT22;7457;50.960;6.830;2023-02-28T12:10:25;10.00;40.40
14733;DHT22;7457;50.960;6.830;2023-02-28T12:13:16;10.10;41.10
14733;DHT22;7457;50.960;6.830;2023-02-28T12:21:35;10.40;39.10
14733;DHT22;7457;50.960;6.830;2023-02-28T12:26:58;8.90;38.50
14733;DHT22;7457;50.960;6.830;2023-02-28T12:29:29;8.20;39.10
14733;DHT22;7457;50.960;6.830;2023-02-28T12:31:59;7.60;40.10
14733;DHT22;7457;50.960;6.830;2023-02-28T12:34:39;7.40;43.00
14733;DHT22;7457;50.960;6.830;2023-02-28T12:37:12;7.60;43.50
14733;DHT22;7457;50.960;6.830;2023-02-28T12:39:49;7.90;43.70
14733;DHT22;7457;50.960;6.830;2023-02-28T12:42:32;8.30;42.90
14733;DHT22;7457;50.960;6.830;2023-02-28T12:45:07;8.50;42.10
14733;DHT22;7457;50.960;6.830;2023-02-28T12:47:36;8.40;40.90
14733;DHT22;7457;50.960;6.830;2023-02-28T12:50:08;8.10;40.60
14733;DHT22;7457;50.960;6.830;2023-02-28T12:55:50;7.10;41.30
14733;DHT22;7457;50.960;6.830;2023-02-28T12:58:39;6.80;42.40
14733;DHT22;7457;50.960;6.830;2023-02-28T13:04:53;6.70;42.70
14733;DHT22;7457;50.960;6.830;2023-02-28T13:09:56;6.70;42.90
14733;DHT22;7457;50.960;6.830;2023-02-28T13:12:23;6.70;42.80
14733;DHT22;7457;50.960;6.830;2023-02-28T13:14:50;6.70;42.80
14733;DHT22;7457;50.960;6.830;2023-02-28T13:17:20;6.60;42.60
14733;DHT22;7457;50.960;6.830;2023-02-28T13:27:53;6.40;43.50
14733;DHT22;7457;50.960;6.830;2023-02-28T13:38:49;6.30;43.90
14733;DHT22;7457;50.960;6.830;2023-02-28T13:44:00;6.30;43.80
14733;DHT22;7457;50.960;6.830;2023-02-28T13:46:27;6.20;43.80
14733;DHT22;7457;50.960;6.830;2023-02-28T13:48:53;6.10;43.40
14733;DHT22;7457;50.960;6.830;2023-02-28T13:51:41;6.00;43.80
14733;DHT22;7457;50.960;6.830;2023-02-28T13:57:19;6.00;43.90
14733;DHT22;7457;50.960;6.830;2023-02-28T14:05:19;6.00;44.00
14733;DHT22;7457;50.960;6.830;2023-02-28T14:07:58;6.00;44.20
14733;DHT22;7457;50.960;6.830;2023-02-28T14:10:31;6.00;44.20
14733;DHT22;7457;50.960;6.830;2023-02-28T14:16:10;6.00;44.10
14733;DHT22;7457;50.960;6.830;2023-02-28T14:18:41;6.00;44.40
14733;DHT22;7457;50.960;6.830;2023-02-28T14:21:11;6.00;44.70
14733;DHT22;7457;50.960;6.830;2023-02-28T14:26:55;6.00;44.50
14733;DHT22;7457;50.960;6.830;2023-02-28T14:32:15;5.90;44.70
14733;DHT22;7457;50.960;6.830;2023-02-28T14:34:55;6.00;44.70
14733;DHT22;7457;50.960;6.830;2023-02-28T14:37:29;5.90;44.40
14733;DHT22;7457;50.960;6.830;2023-02-28T14:39:57;5.80;44.50
14733;DHT22;7457;50.960;6.830;2023-02-28T14:42:55;5.80;44.80
14733;DHT22;7457;50.960;6.830;2023-02-28T14:45:22;5.80;44.90
14733;DHT22;7457;50.960;6.830;2023-02-28T14:47:50;5.80;45.10
14733;DHT22;7457;50.960;6.830;2023-02-28T14:50:22;5.80;44.90
14733;DHT22;7457;50.960;6.830;2023-02-28T14:52:52;5.70;44.90
14733;DHT22;7457;50.960;6.830;2023-02-28T14:55:22;5.70;45.10
14733;DHT22;7457;50.960;6.830;2023-02-28T14:58:00;5.70;45.20
14733;DHT22;7457;50.960;6.830;2023-02-28T15:00:29;5.70;44.90
14733;DHT22;7457;50.960;6.830;2023-02-28T15:02:56;5.70;44.90
14733;DHT22;7457;50.960;6.830;2023-02-28T15:05:27;5.70;44.60
14733;DHT22;7457;50.960;6.830;2023-02-28T15:08:13;5.60;44.30
14733;DHT22;7457;50.960;6.830;2023-02-28T15:13:20;5.60;44.60
14733;DHT22;7457;50.960;6.830;2023-02-28T15:16:04;5.60;44.90
14733;DHT22;7457;50.960;6.830;2023-02-28T15:21:21;5.60;44.70
14733;DHT22;7457;50.960;6.830;2023-02-28T15:24:05;5.60;44.80
14733;DHT22;7457;50.960;6.830;2023-02-28T15:26:42;5.60;44.80
14733;DHT22;7457;50.960;6.830;2023-02-28T15:29:21;5.60;44.70
14733;DHT22;7457;50.960;6.830;2023-02-28T15:36:51;5.60;44.80
14733;DHT22;7457;50.960;6.830;2023-02-28T15:39:25;5.50;44.90
14733;DHT22;7457;50.960;6.830;2023-02-28T15:42:17;5.50;44.90
14733;DHT22;7457;50.960;6.830;2023-02-28T15:44:43;5.50;45.10
14733;DHT22;7457;50.960;6.830;2023-02-28T15:47:29;5.50;45.10
14733;DHT22;7457;50.960;6.830;2023-02-28T15:50:00;5.40;45.00
14733;DHT22;7457;50.960;6.830;2023-02-28T15:52:42;5.40;45.20
14733;DHT22;7457;50.960;6.830;2023-02-28T15:55:20;5.40;45.40
14733;DHT22;7457;50.960;6.830;2023-02-28T15:57:49;5.40;45.40
14733;DHT22;7457;50.960;6.830;2023-02-28T16:00:19;5.40;45.50
14733;DHT22;7457;50.960;6.830;2023-02-28T16:02:45;5.40;45.60
14733;DHT22;7457;50.960;6.830;2023-02-28T16:07:41;5.40;45.60
14733;DHT22;7457;50.960;6.830;2023-02-28T16:10:09;5.40;45.60
14733;DHT22;7457;50.960;6.830;2023-02-28T16:12:36;5.40;45.70
14733;DHT22;7457;50.960;6.830;2023-02-28T16:15:07;5.40;45.90
14733;DHT22;7457;50.960;6.830;2023-02-28T16:17:35;5.30;45.80
14733;DHT22;7457;50.960;6.830;2023-02-28T16:22:58;5.30;45.80
14733;DHT22;7457;50.960;6.830;2023-02-28T16:25:40;5.30;45.90
14733;DHT22;7457;50.960;6.830;2023-02-28T16:28:19;5.30;46.20
14733;DHT22;7457;50.960;6.830;2023-02-28T16:30:46;5.20;46.40
14733;DHT22;7457;50.960;6.830;2023-02-28T16:33:11;5.20;46.10
14733;DHT22;7457;50.960;6.830;2023-02-28T16:35:37;5.20;45.80
14733;DHT22;7457;50.960;6.830;2023-02-28T16:38:03;5.20;45.80
14733;DHT22;7457;50.960;6.830;2023-02-28T16:40:33;5.10;45.80
14733;DHT22;7457;50.960;6.830;2023-02-28T16:43:00;5.10;45.80
14733;DHT22;7457;50.960;6.830;2023-02-28T16:45:28;5.00;45.80
14733;DHT22;7457;50.960;6.830;2023-02-28T16:47:54;5.00;45.90
14733;DHT22;7457;50.960;6.830;2023-02-28T16:50:25;5.00;45.90
14733;DHT22;7457;50.960;6.830;2023-02-28T16:52:51;4.90;46.00
14733;DHT22;7457;50.960;6.830;2023-02-28T16:55:18;4.90;46.10
14733;DHT22;7457;50.960;6.830;2023-02-28T16:57:46;4.80;46.10
14733;DHT22;7457;50.960;6.830;2023-02-28T17:00:13;4.80;46.20
14733;DHT22;7457;50.960;6.830;2023-02-28T17:02:39;4.70;46.30
14733;DHT22;7457;50.960;6.830;2023-02-28T17:05:05;4.60;46.20
14733;DHT22;7457;50.960;6.830;2023-02-28T17:07:31;4.60;46.30
14733;DHT22;7457;50.960;6.830;2023-02-28T17:09:57;4.50;46.30
14733;DHT22;7457;50.960;6.830;2023-02-28T17:12:23;4.50;46.30
14733;DHT22;7457;50.960;6.830;2023-02-28T17:14:49;4.50;46.40
14733;DHT22;7457;50.960;6.830;2023-02-28T17:17:18;4.40;46.40
14733;DHT22;7457;50.960;6.830;2023-02-28T17:19:45;4.30;46.60
14733;DHT22;7457;50.960;6.830;2023-02-28T17:22:11;4.30;46.60
14733;DHT22;7457;50.960;6.830;2023-02-28T17:24:36;4.20;46.70
14733;DHT22;7457;50.960;6.830;2023-02-28T17:27:03;4.20;46.80
14733;DHT22;7457;50.960;6.830;2023-02-28T17:29:29;4.10;46.90
14733;DHT22;7457;50.960;6.830;2023-02-28T17:31:55;4.10;47.00
14733;DHT22;7457;50.960;6.830;2023-02-28T17:34:21;4.10;47.10
14733;DHT22;7457;50.960;6.830;2023-02-28T17:36:48;4.00;47.20
14733;DHT22;7457;50.960;6.830;2023-02-28T17:39:15;4.00;47.30
14733;DHT22;7457;50.960;6.830;2023-02-28T17:41:52;3.90;47.50
14733;DHT22;7457;50.960;6.830;2023-02-28T17:44:18;3.90;47.70
14733;DHT22;7457;50.960;6.830;2023-02-28T17:46:45;3.90;47.90
14733;DHT22;7457;50.960;6.830;2023-02-28T17:49:11;3.90;48.40
14733;DHT22;7457;50.960;6.830;2023-02-28T17:51:37;3.80;48.90
14733;DHT22;7457;50.960;6.830;2023-02-28T17:54:02;3.80;49.70
14733;DHT22;7457;50.960;6.830;2023-02-28T17:56:28;3.70;50.10
14733;DHT22;7457;50.960;6.830;2023-02-28T17:58:55;3.70;50.60
14733;DHT22;7457;50.960;6.830;2023-02-28T18:01:21;3.70;51.00
14733;DHT22;7457;50.960;6.830;2023-02-28T18:03:48;3.60;51.40
14733;DHT22;7457;50.960;6.830;2023-02-28T18:06:17;3.60;51.70
14733;DHT22;7457;50.960;6.830;2023-02-28T18:08:44;3.50;52.00
14733;DHT22;7457;50.960;6.830;2023-02-28T18:11:10;3.50;52.20
14733;DHT22;7457;50.960;6.830;2023-02-28T18:13:47;3.40;52.70
14733;DHT22;7457;50.960;6.830;2023-02-28T18:16:13;3.40;52.90
14733;DHT22;7457;50.960;6.830;2023-02-28T18:18:39;3.30;53.10
14733;DHT22;7457;50.960;6.830;2023-02-28T18:21:06;3.30;53.60
14733;DHT22;7457;50.960;6.830;2023-02-28T18:23:32;3.20;53.90
14733;DHT22;7457;50.960;6.830;2023-02-28T18:25:57;3.20;54.10
14733;DHT22;7457;50.960;6.830;2023-02-28T18:28:23;3.10;54.20
14733;DHT22;7457;50.960;6.830;2023-02-28T18:30:49;3.10;54.40
14733;DHT22;7457;50.960;6.830;2023-02-28T18:33:15;3.00;54.60
14733;DHT22;7457;50.960;6.830;2023-02-28T18:35:40;3.00;54.90